SKUI/UIB METAR and TAF weather

Enter ICAO airport designator
Station Type Date Time Source
SKUI METAR 2019/05/26 23:00 UTC NOAA

SKUI 262300Z 00000KT 9999 FEW040 SCT200 28/24 A2979


Station Type Date Time Source
SKUI Decoded METAR 2019/05/26 23:00 UTC NOAA

Quibdo / El Carano, Colombia (SKUI) 05-43N 076-37W
May 26, 2019 - 07:00 PM EDT / 2019.05.26 2300 UTC
Wind: Calm:0
Visibility: greater than 7 mile(s):0
Sky conditions: partly cloudy
Temperature: 82 F (28 C)
Dew Point: 75 F (24 C)
Relative Humidity: 78%
Pressure (altimeter): 29.79 in. Hg (1008 hPa)
ob: SKUI 262300Z 00000KT 9999 FEW040 SCT200 28/24 A2979
cycle: 23

Station Type Date Time Source
SKUI TAF UTC NOAA

Error!

Example: see airport list